Time;durP1;ratioP1;P1;durP2;ratioP2;P2;SDS_P1;SDS_P2;PMS_P1;PMS_P2;Temp;Humidity;BMP_temperature;BMP_pressure;BME280_temperature;BME280_humidity;BME280_pressure;Samples;Min_cycle;Max_cycle;Signal;HPM_P1;HPM_P2
2023/12/02 00:02:09;;;;;;;137.75;10.85;;;;;;;6.01;84.53;96288.59;4393446;32;20102;-76
2023/12/02 00:04:36;;;;;;;15.05;3.08;;;;;;;5.90;86.34;96283.22;4393764;32;20107;-76
2023/12/02 00:07:03;;;;;;;238.93;15.77;;;;;;;6.44;83.74;96288.06;4393672;32;20081;-76
2023/12/02 00:09:30;;;;;;;189.57;11.90;;;;;;;5.66;86.62;96290.41;4393483;32;20571;-76
2023/12/02 00:11:58;;;;;;;155.75;11.35;;;;;;;6.26;84.97;96275.31;4393526;32;20141;-76
2023/12/02 00:14:25;;;;;;;189.57;13.95;;;;;;;6.41;83.04;96283.09;4393575;32;20098;-76
2023/12/02 00:16:52;;;;;;;70.00;7.28;;;;;;;6.71;83.16;96293.41;4393098;32;20445;-76
2023/12/02 00:19:19;;;;;;;136.07;10.02;;;;;;;5.97;83.82;96284.56;4388601;32;20161;-76
2023/12/02 00:21:46;;;;;;;81.05;8.02;;;;;;;5.52;88.15;96285.97;4393669;32;20082;-76
2023/12/02 00:24:13;;;;;;;114.68;9.60;;;;;;;6.21;84.59;96289.28;4393164;32;20141;-76
2023/12/02 00:26:40;;;;;;;130.55;9.30;;;;;;;6.12;84.19;96289.78;4394703;32;20082;-76
2023/12/02 00:29:07;;;;;;;136.40;12.05;;;;;;;5.92;85.05;96285.69;4395983;32;20140;-76
2023/12/02 00:31:34;;;;;;;199.30;13.05;;;;;;;6.42;82.99;96287.31;4395509;32;20687;-76
2023/12/02 00:34:01;;;;;;;90.50;8.45;;;;;;;5.86;87.11;96314.97;4395897;32;20150;-76
2023/12/02 00:36:28;;;;;;;77.28;6.90;;;;;;;5.69;85.68;96307.31;4395646;32;20101;-76
2023/12/02 00:38:55;;;;;;;186.12;12.93;;;;;;;6.04;87.50;96282.50;4395474;32;20102;-76
2023/12/02 00:41:22;;;;;;;83.12;8.45;;;;;;;6.34;82.83;96296.22;4395776;32;20098;-76
2023/12/02 00:43:49;;;;;;;206.00;13.65;;;;;;;6.03;85.28;96289.34;4395930;32;20126;-76
2023/12/02 00:46:16;;;;;;;161.77;12.68;;;;;;;6.34;83.98;96275.75;4395307;32;20149;-76
2023/12/02 00:48:43;;;;;;;151.43;11.52;;;;;;;5.07;89.06;96262.69;4395520;32;20098;-76
2023/12/02 00:51:10;;;;;;;105.18;10.68;;;;;;;5.82;86.58;96239.25;4395262;32;20098;-76
2023/12/02 00:53:37;;;;;;;56.30;6.87;;;;;;;5.77;86.45;96249.75;4395547;32;20094;-76
2023/12/02 00:56:05;;;;;;;18.42;4.05;;;;;;;5.14;88.06;96259.78;4395454;32;20082;-76
2023/12/02 00:58:32;;;;;;;21.35;4.65;;;;;;;3.62;99.42;96272.84;4395241;32;20157;-76
2023/12/02 01:01:07;;;;;;;88.18;7.57;;;;;;;3.36;100.00;96270.56;4395586;32;20166;-76
2023/12/02 01:03:34;;;;;;;74.68;7.65;;;;;;;4.09;100.00;96256.31;4395546;32;20473;-75
2023/12/02 01:06:02;;;;;;;45.92;6.93;;;;;;;3.80;100.00;96255.88;4395043;32;20112;-76
2023/12/02 01:08:29;;;;;;;73.78;7.20;;;;;;;3.80;100.00;96237.19;4395399;32;20121;-76
2023/12/02 01:10:56;;;;;;;38.70;5.28;;;;;;;3.17;100.00;96253.50;4395427;32;20087;-76
2023/12/02 01:13:23;;;;;;;33.55;5.10;;;;;;;3.38;100.00;96248.38;4395170;32;20137;-76
2023/12/02 01:15:50;;;;;;;44.03;5.62;;;;;;;3.21;100.00;96256.75;4395229;32;20098;-76
2023/12/02 01:18:17;;;;;;;32.85;6.35;;;;;;;3.40;100.00;96247.44;4395188;32;20174;-76
2023/12/02 01:20:44;;;;;;;50.88;5.45;;;;;;;3.27;100.00;96225.06;4395013;32;20086;-76
2023/12/02 01:23:11;;;;;;;59.67;6.93;;;;;;;3.34;100.00;96229.84;4395506;32;20086;-76
2023/12/02 01:25:38;;;;;;;72.68;7.05;;;;;;;4.13;100.00;96248.44;4395173;32;20496;-76
2023/12/02 01:28:06;;;;;;;68.70;8.55;;;;;;;4.58;98.83;96240.38;4394797;32;20152;-76
2023/12/02 01:30:33;;;;;;;131.52;9.57;;;;;;;4.12;100.00;96256.97;4395298;32;20142;-76
2023/12/02 01:33:00;;;;;;;153.90;10.65;;;;;;;4.80;98.63;96257.22;4395323;32;20087;-75
2023/12/02 01:35:27;;;;;;;50.20;5.93;;;;;;;4.93;95.58;96248.06;4394852;32;20099;-76
2023/12/02 01:37:54;;;;;;;66.00;7.30;;;;;;;5.37;93.44;96242.47;4394219;32;20130;-76
2023/12/02 01:40:21;;;;;;;101.87;8.35;;;;;;;5.46;92.48;96240.25;4394813;32;20110;-76
2023/12/02 01:42:48;;;;;;;46.60;7.05;;;;;;;4.60;95.41;96230.91;4395242;32;20094;-76
2023/12/02 01:45:15;;;;;;;52.85;6.05;;;;;;;4.17;100.00;96227.00;4395095;32;20142;-76
2023/12/02 01:47:43;;;;;;;93.97;7.07;;;;;;;3.78;100.00;96225.34;4394710;32;20151;-76
2023/12/02 01:50:11;;;;;;;135.25;10.18;;;;;;;3.49;100.00;96206.22;4395206;32;20113;-76
2023/12/02 01:52:38;;;;;;;106.93;9.27;;;;;;;4.49;100.00;96219.53;4381628;32;20197;-76
2023/12/02 01:55:05;;;;;;;71.55;7.50;;;;;;;4.73;96.66;96223.47;4394780;32;20250;-76
2023/12/02 01:57:32;;;;;;;64.30;6.25;;;;;;;4.97;95.71;96230.81;4395053;32;20509;-76
2023/12/02 01:59:59;;;;;;;53.13;5.97;;;;;;;4.94;96.29;96231.81;4394984;32;20409;-76
2023/12/02 02:02:27;;;;;;;49.88;5.15;;;;;;;4.40;98.96;96233.56;4394774;32;20147;-76
2023/12/02 02:04:54;;;;;;;75.47;6.28;;;;;;;5.12;95.05;96218.13;4394970;32;20082;-76
2023/12/02 02:07:21;;;;;;;62.35;6.97;;;;;;;4.87;96.68;96227.91;4395087;32;20692;-76
2023/12/02 02:09:48;;;;;;;53.03;6.03;;;;;;;5.48;93.38;96229.94;4394720;32;20086;-76
2023/12/02 02:12:16;;;;;;;110.22;8.73;;;;;;;5.18;92.98;96225.47;4395163;32;20087;-76
2023/12/02 02:14:43;;;;;;;57.42;6.35;;;;;;;5.06;92.35;96230.38;4395062;32;20128;-77
2023/12/02 02:17:11;;;;;;;20.95;2.78;;;;;;;5.00;95.25;96202.56;4394801;32;20140;-76
2023/12/02 02:19:38;;;;;;;90.35;7.57;;;;;;;5.49;93.21;96206.00;4394718;32;20121;-76
2023/12/02 02:22:05;;;;;;;67.87;6.78;;;;;;;4.77;96.39;96221.56;4394998;32;20087;-76
2023/12/02 02:24:32;;;;;;;67.00;6.95;;;;;;;4.59;97.08;96203.72;4394686;32;20104;-76
2023/12/02 02:26:59;;;;;;;56.72;5.95;;;;;;;5.08;95.56;96203.00;4394837;32;20377;-76
2023/12/02 02:29:26;;;;;;;84.82;7.03;;;;;;;4.56;96.89;96206.37;4394479;32;20165;-76
2023/12/02 02:31:53;;;;;;;130.37;9.18;;;;;;;4.54;97.57;96204.81;4394913;32;20459;-76
2023/12/02 02:34:20;;;;;;;89.28;7.15;;;;;;;4.46;97.35;96200.06;4394817;32;20078;-76
2023/12/02 02:36:47;;;;;;;71.45;8.07;;;;;;;5.40;93.72;96209.03;4394485;32;20094;-76
2023/12/02 02:39:14;;;;;;;225.27;13.65;;;;;;;5.49;92.74;96198.34;4394939;32;20106;-76
2023/12/02 02:41:41;;;;;;;154.60;10.55;;;;;;;5.02;92.67;96180.31;4394834;32;20090;-76
2023/12/02 02:44:08;;;;;;;114.70;9.57;;;;;;;5.34;93.66;96192.28;4394478;32;20153;-76
2023/12/02 02:46:35;;;;;;;52.00;6.10;;;;;;;5.41;93.50;96198.72;4394668;32;20132;-76
2023/12/02 02:49:02;;;;;;;145.27;10.65;;;;;;;5.20;92.61;96207.50;4394296;32;20172;-76
2023/12/02 02:51:30;;;;;;;105.07;9.45;;;;;;;5.76;89.95;96214.81;4394467;32;20120;-76
2023/12/02 02:53:57;;;;;;;74.62;6.80;;;;;;;5.54;90.69;96221.13;4394684;32;20553;-76
2023/12/02 02:56:25;;;;;;;95.12;7.50;;;;;;;5.67;90.64;96233.22;4394592;32;20101;-76
2023/12/02 02:58:52;;;;;;;39.70;5.12;;;;;;;5.43;92.94;96226.81;4394288;32;20442;-76
2023/12/02 03:01:19;;;;;;;57.62;5.53;;;;;;;5.91;90.19;96212.37;4394477;32;20107;-76
2023/12/02 03:03:46;;;;;;;178.48;10.95;;;;;;;5.80;87.93;96203.50;4394626;32;20390;-76
2023/12/02 03:06:13;;;;;;;54.78;7.40;;;;;;;5.28;91.31;96187.47;4394208;32;20483;-76
2023/12/02 03:08:40;;;;;;;84.55;7.70;;;;;;;5.22;91.93;96180.97;4394435;32;20102;-76
2023/12/02 03:11:08;;;;;;;94.85;7.57;;;;;;;5.11;94.39;96170.47;4394558;32;20113;-76
2023/12/02 03:13:34;;;;;;;71.80;6.75;;;;;;;5.16;93.66;96165.94;4394351;32;20544;-76
2023/12/02 03:16:02;;;;;;;27.33;3.67;;;;;;;5.43;91.59;96168.81;4394425;32;20500;-76
2023/12/02 03:18:29;;;;;;;26.70;4.37;;;;;;;5.25;92.73;96159.53;4394032;32;20129;-76
2023/12/02 03:20:56;;;;;;;72.93;6.80;;;;;;;5.26;93.10;96158.63;4394767;32;20082;-76
2023/12/02 03:23:23;;;;;;;92.80;7.30;;;;;;;4.94;93.31;96163.62;4395375;32;20079;-76
2023/12/02 03:25:50;;;;;;;69.62;5.32;;;;;;;5.26;92.51;96166.28;4394727;32;20114;-76
2023/12/02 03:28:18;;;;;;;143.95;9.77;;;;;;;5.21;93.55;96170.81;4395286;32;20489;-76
2023/12/02 03:30:45;;;;;;;25.77;3.67;;;;;;;5.04;94.48;96181.91;4394561;32;20102;-76
2023/12/02 03:33:12;;;;;;;105.60;7.43;;;;;;;4.79;92.96;96169.53;4394151;32;20086;-76
2023/12/02 03:35:39;;;;;;;64.30;7.00;;;;;;;5.91;90.23;96173.97;4394335;32;20099;-76
2023/12/02 03:38:06;;;;;;;39.50;5.30;;;;;;;5.57;90.24;96178.31;4394461;32;20747;-76
2023/12/02 03:40:33;;;;;;;96.65;7.68;;;;;;;5.79;90.45;96171.16;4393999;32;20149;-76
2023/12/02 03:43:00;;;;;;;39.65;5.10;;;;;;;5.54;90.54;96159.75;4394218;32;20145;-76
2023/12/02 03:45:28;;;;;;;53.15;6.00;;;;;;;5.74;89.73;96165.47;4394122;32;20442;-76
2023/12/02 03:47:55;;;;;;;27.33;3.70;;;;;;;5.14;91.26;96149.84;4393718;32;20686;-76
2023/12/02 03:50:22;;;;;;;48.65;5.45;;;;;;;5.03;92.67;96161.53;4394084;32;20137;-76
2023/12/02 03:52:49;;;;;;;132.70;11.12;;;;;;;5.84;89.54;96173.44;4394051;32;20421;-76
2023/12/02 03:55:18;;;;;;;127.05;9.07;;;;;;;5.49;89.47;96183.81;4393616;32;20110;-76
2023/12/02 03:57:45;;;;;;;75.97;6.60;;;;;;;6.17;86.82;96177.66;4393691;32;20094;-76
2023/12/02 04:00:15;;;;;;;95.28;8.30;;;;;;;6.01;88.15;96164.91;4394082;32;20087;-76
2023/12/02 04:02:42;;;;;;;59.92;6.40;;;;;;;5.99;86.54;96162.44;4395717;32;20555;-76
2023/12/02 04:05:10;;;;;;;130.52;10.95;;;;;;;5.99;86.43;96162.44;4395832;32;20758;-76
2023/12/02 04:07:38;;;;;;;42.85;4.90;;;;;;;6.05;88.28;96167.19;4395464;32;20091;-76
2023/12/02 04:10:06;;;;;;;75.07;6.87;;;;;;;6.59;83.12;96164.19;4395852;32;20109;-76
2023/12/02 04:12:35;;;;;;;140.82;8.45;;;;;;;6.61;83.76;96150.41;4395867;32;20441;-76
2023/12/02 04:15:04;;;;;;;26.62;4.00;;;;;;;6.66;83.47;96160.41;4395514;32;20153;-76
2023/12/02 04:17:31;;;;;;;35.55;4.53;;;;;;;6.31;85.49;96150.41;4395762;32;20129;-76
2023/12/02 04:19:58;;;;;;;41.72;4.60;;;;;;;5.98;85.96;96142.84;4395723;32;20090;-76
2023/12/02 04:22:26;;;;;;;167.13;10.13;;;;;;;5.37;89.98;96148.66;4395486;32;20433;-76
2023/12/02 04:24:53;;;;;;;37.15;4.70;;;;;;;6.31;85.81;96147.84;4395749;32;20158;-76
2023/12/02 04:27:20;;;;;;;100.18;8.63;;;;;;;6.62;83.25;96156.38;4395804;32;20116;-76
2023/12/02 04:29:47;;;;;;;72.18;6.45;;;;;;;5.91;86.33;96151.78;4395390;32;20112;-76
2023/12/02 04:32:14;;;;;;;40.55;4.43;;;;;;;5.63;89.50;96152.37;4395790;32;20148;-76
2023/12/02 04:34:42;;;;;;;125.55;8.13;;;;;;;5.84;87.97;96162.38;4395704;32;20110;-76
2023/12/02 04:37:09;;;;;;;58.13;5.68;;;;;;;6.26;87.28;96162.63;4395384;32;20157;-76
2023/12/02 04:39:36;;;;;;;68.07;6.43;;;;;;;6.27;84.75;96151.50;4395741;32;20618;-76
2023/12/02 04:42:03;;;;;;;49.65;5.47;;;;;;;6.91;82.36;96155.53;4395771;32;20098;-76
2023/12/02 04:44:30;;;;;;;79.10;7.07;;;;;;;6.59;83.11;96162.50;4395308;32;20094;-76
2023/12/02 04:46:57;;;;;;;107.93;8.18;;;;;;;5.66;89.33;96162.47;4395662;32;20162;-76
2023/12/02 04:49:24;;;;;;;43.78;4.72;;;;;;;5.99;86.81;96162.44;4395637;32;20154;-76
2023/12/02 04:51:52;;;;;;;89.55;7.35;;;;;;;5.56;87.94;96152.81;4395208;32;20143;-76
2023/12/02 04:54:19;;;;;;;91.12;7.87;;;;;;;5.61;90.93;96151.66;4395593;32;20118;-76
2023/12/02 04:56:46;;;;;;;93.32;7.57;;;;;;;6.06;88.58;96161.19;4395079;32;20177;-76
2023/12/02 04:59:13;;;;;;;40.47;5.03;;;;;;;5.75;89.21;96150.94;4395634;32;20129;-76
2023/12/02 05:01:40;;;;;;;37.22;4.72;;;;;;;4.76;94.61;96143.28;4395446;32;20126;-76
2023/12/02 05:04:08;;;;;;;25.85;4.90;;;;;;;4.16;98.72;96132.62;4395325;32;20094;-76
2023/12/02 05:06:35;;;;;;;16.45;4.03;;;;;;;5.20;95.28;96129.06;4395583;32;20103;-76
2023/12/02 05:09:03;;;;;;;16.05;3.83;;;;;;;5.05;94.40;96124.75;4395334;32;20087;-76
2023/12/02 05:11:30;;;;;;;49.85;5.95;;;;;;;5.03;92.42;96124.00;4395396;32;20082;-76
2023/12/02 05:13:57;;;;;;;24.30;4.93;;;;;;;5.43;92.44;96130.44;4395569;32;20114;-76
2023/12/02 05:16:24;;;;;;;66.35;6.57;;;;;;;5.03;93.55;96128.28;4395510;32;20162;-76
2023/12/02 05:18:51;;;;;;;88.12;6.93;;;;;;;4.87;95.23;96130.78;4394893;32;20126;-76
2023/12/02 05:21:19;;;;;;;34.35;6.03;;;;;;;5.77;91.51;96156.78;4395413;32;20083;-76
2023/12/02 05:23:46;;;;;;;33.03;4.65;;;;;;;5.47;92.41;96139.59;4395437;32;20401;-76
2023/12/02 05:26:13;;;;;;;30.85;5.05;;;;;;;5.45;90.70;96120.13;4394963;32;20138;-76
2023/12/02 05:28:40;;;;;;;53.17;6.05;;;;;;;5.38;92.13;96116.22;4395463;32;20161;-76
2023/12/02 05:31:07;;;;;;;74.40;7.03;;;;;;;5.79;90.36;96143.00;4381927;32;20381;-76
2023/12/02 05:33:34;;;;;;;33.28;5.28;;;;;;;5.90;89.07;96155.25;4396204;32;20091;-77
2023/12/02 05:36:01;;;;;;;33.97;4.55;;;;;;;5.04;93.61;96158.87;4397550;32;20063;-77
2023/12/02 05:38:28;;;;;;;33.00;5.45;;;;;;;4.38;97.08;96157.94;4397130;32;20149;-77
2023/12/02 05:40:55;;;;;;;38.55;5.60;;;;;;;4.77;98.02;96150.03;4396186;32;20177;-76
2023/12/02 05:43:22;;;;;;;57.25;6.40;;;;;;;5.07;95.99;96152.78;4395300;32;20416;-76
2023/12/02 05:45:49;;;;;;;66.10;7.85;;;;;;;4.90;97.44;96162.16;4395266;32;20111;-76
2023/12/02 05:48:18;;;;;;;36.17;5.40;;;;;;;5.46;94.15;96160.97;4395332;32;20095;-76
2023/12/02 05:50:45;;;;;;;32.65;6.00;;;;;;;5.02;96.45;96158.16;4395283;32;20082;-76
2023/12/02 05:53:12;;;;;;;27.27;5.97;;;;;;;5.54;92.75;96160.56;4394902;32;20630;-75
2023/12/02 05:55:39;;;;;;;15.82;4.57;;;;;;;4.82;97.37;96166.00;4394913;32;20456;-76
2023/12/02 05:58:06;;;;;;;19.95;5.47;;;;;;;4.52;97.93;96163.19;4394958;32;20114;-76
2023/12/02 06:00:35;;;;;;;15.00;4.65;;;;;;;4.88;96.57;96160.56;4394698;32;20098;-76
2023/12/02 06:03:03;;;;;;;17.58;4.50;;;;;;;4.59;99.00;96156.91;4395113;32;20590;-75
2023/12/02 06:05:30;;;;;;;17.40;4.78;;;;;;;4.42;100.00;96162.00;4393921;32;20107;-76
2023/12/02 06:07:57;;;;;;;20.15;4.68;;;;;;;4.15;100.00;96166.69;4394731;32;20144;-76
2023/12/02 06:10:24;;;;;;;16.10;5.18;;;;;;;4.76;99.50;96167.09;4394887;32;20121;-76
2023/12/02 06:12:51;;;;;;;19.87;4.87;;;;;;;4.92;97.53;96164.63;4395109;32;20128;-76
2023/12/02 06:15:19;;;;;;;21.10;4.80;;;;;;;5.82;91.21;96162.47;4394990;32;20116;-76
2023/12/02 06:17:46;;;;;;;20.35;3.95;;;;;;;5.66;90.49;96149.69;4394774;32;20086;-76
2023/12/02 06:20:13;;;;;;;21.48;5.57;;;;;;;4.64;96.84;96145.53;4394990;32;20116;-76
2023/12/02 06:22:40;;;;;;;14.35;4.20;;;;;;;4.68;99.97;96151.34;4394531;32;20104;-76
2023/12/02 06:25:07;;;;;;;51.00;7.18;;;;;;;4.50;98.10;96154.81;4394433;32;20099;-76
2023/12/02 06:27:34;;;;;;;46.95;7.00;;;;;;;5.54;92.84;96164.88;4395139;32;20458;-76
2023/12/02 06:30:02;;;;;;;97.50;7.65;;;;;;;5.49;93.12;96167.66;4394504;32;20109;-76
2023/12/02 06:32:29;;;;;;;41.80;6.03;;;;;;;4.92;95.39;96170.56;4381502;32;20098;-76
2023/12/02 06:34:56;;;;;;;28.42;5.65;;;;;;;4.22;100.00;96168.06;4394857;32;20570;-76
2023/12/02 06:37:24;;;;;;;24.33;5.32;;;;;;;3.99;100.00;96167.41;4395084;32;20090;-76
2023/12/02 06:39:51;;;;;;;29.60;5.15;;;;;;;4.43;100.00;96172.13;4394676;32;20082;-76
2023/12/02 06:42:18;;;;;;;59.58;7.78;;;;;;;3.62;100.00;96160.63;4394542;32;20673;-76
2023/12/02 06:44:45;;;;;;;75.87;7.62;;;;;;;4.35;100.00;96158.91;4394857;32;20095;-76
2023/12/02 06:47:13;;;;;;;60.25;8.05;;;;;;;4.11;100.00;96163.44;4394893;32;20173;-76
2023/12/02 06:49:40;;;;;;;55.85;8.27;;;;;;;5.22;97.72;96169.91;4394271;32;20105;-76
2023/12/02 06:52:07;;;;;;;31.58;5.20;;;;;;;5.85;93.54;96170.00;4394857;32;20094;-76
2023/12/02 06:54:37;;;;;;;118.62;10.32;;;;;;;4.56;95.99;96157.84;4394775;32;20463;-76
2023/12/02 06:57:05;;;;;;;65.97;7.10;;;;;;;4.75;98.47;96173.13;4394317;32;20150;-76
2023/12/02 06:59:32;;;;;;;63.08;7.32;;;;;;;4.93;96.46;96174.75;4380865;32;20144;-76
2023/12/02 07:01:59;;;;;;;77.45;8.48;;;;;;;4.88;96.28;96181.81;4394709;32;20090;-76
2023/12/02 07:04:27;;;;;;;133.82;9.05;;;;;;;5.48;93.51;96183.91;4394395;32;20586;-76
2023/12/02 07:06:54;;;;;;;121.35;8.55;;;;;;;5.10;93.53;96181.56;4396031;32;20100;-77
2023/12/02 07:09:21;;;;;;;120.32;8.52;;;;;;;5.89;91.18;96176.59;4396979;32;20079;-77
2023/12/02 07:11:48;;;;;;;156.68;9.38;;;;;;;6.49;86.80;96174.19;4397524;32;20156;-77
2023/12/02 07:14:15;;;;;;;70.93;7.12;;;;;;;6.35;87.51;96166.41;4398118;32;20097;-77
2023/12/02 07:16:42;;;;;;;178.12;9.98;;;;;;;6.31;87.03;96165.78;4397222;32;20181;-77
2023/12/02 07:19:09;;;;;;;113.57;8.93;;;;;;;6.06;89.27;96180.81;4397143;32;20083;-77
2023/12/02 07:21:36;;;;;;;75.22;6.80;;;;;;;5.77;89.57;96179.81;4395691;32;20101;-76
2023/12/02 07:24:04;;;;;;;88.65;8.55;;;;;;;5.15;94.24;96173.69;4394550;32;20110;-76
2023/12/02 07:26:31;;;;;;;77.35;7.95;;;;;;;4.43;100.00;96174.69;4385984;32;269808;-76
2023/12/02 07:28:58;;;;;;;81.20;7.07;;;;;;;5.74;93.90;96160.34;4394065;32;20105;-76
2023/12/02 07:31:25;;;;;;;125.93;9.55;;;;;;;5.91;91.72;96164.56;4393838;32;20559;-76
2023/12/02 07:33:52;;;;;;;121.05;8.40;;;;;;;6.06;90.62;96173.13;4394507;32;20094;-76
2023/12/02 07:36:21;;;;;;;247.07;13.05;;;;;;;6.11;89.90;96183.16;4395299;32;20094;-76
2023/12/02 07:38:48;;;;;;;126.55;8.90;;;;;;;6.84;86.07;96179.84;4396042;32;20111;-76
2023/12/02 07:41:15;;;;;;;185.37;11.52;;;;;;;6.92;83.70;96177.69;4396354;32;20154;-76
2023/12/02 07:43:42;;;;;;;108.53;9.38;;;;;;;8.09;78.47;96176.63;4396257;32;20098;-76
2023/12/02 07:46:11;;;;;;;39.90;5.75;;;;;;;7.75;77.85;96181.25;4395817;32;20103;-76
2023/12/02 07:48:38;;;;;;;12.50;4.18;;;;;;;6.10;86.79;96190.00;4396161;32;20570;-76
2023/12/02 07:51:06;;;;;;;11.75;4.00;;;;;;;6.58;84.44;96195.88;4396174;32;20126;-76
2023/12/02 07:53:33;;;;;;;11.07;3.70;;;;;;;7.14;81.81;96199.50;4395930;32;20098;-76
2023/12/02 07:56:01;;;;;;;8.90;3.40;;;;;;;6.67;82.76;96198.75;4396051;32;20090;-76
2023/12/02 07:58:28;;;;;;;10.38;3.22;;;;;;;7.05;81.16;96184.66;4396271;32;20453;-76
2023/12/02 08:00:55;;;;;;;8.93;3.35;;;;;;;7.35;79.05;96195.69;4382162;32;20109;-76
2023/12/02 08:03:22;;;;;;;12.57;3.47;;;;;;;7.29;78.48;96193.47;4396216;32;20107;-76
2023/12/02 08:05:51;;;;;;;9.98;3.22;;;;;;;6.96;79.62;96199.66;4396200;32;20484;-76
2023/12/02 08:08:18;;;;;;;11.55;3.83;;;;;;;6.70;81.17;96205.47;4395644;32;20152;-76
2023/12/02 08:10:47;;;;;;;9.85;3.80;;;;;;;6.80;79.92;96206.56;4395935;32;20485;-76
2023/12/02 08:13:14;;;;;;;10.18;3.90;;;;;;;6.89;81.53;96211.16;4395521;32;20464;-76
2023/12/02 08:15:41;;;;;;;8.68;3.20;;;;;;;7.03;79.45;96222.38;4395882;32;20095;-76
2023/12/02 08:18:08;;;;;;;8.85;3.00;;;;;;;5.78;84.90;96213.00;4395775;32;20150;-76
2023/12/02 08:20:35;;;;;;;12.45;3.72;;;;;;;6.93;82.33;96210.09;4395706;32;20146;-76
2023/12/02 08:23:02;;;;;;;11.05;3.78;;;;;;;6.45;83.85;96215.41;4396017;32;20086;-76
2023/12/02 08:25:29;;;;;;;11.27;3.85;;;;;;;6.13;85.04;96214.59;4395709;32;20105;-76
2023/12/02 08:27:57;;;;;;;11.27;3.67;;;;;;;6.07;86.66;96215.78;4395583;32;20077;-76
2023/12/02 08:30:24;;;;;;;10.13;3.40;;;;;;;6.80;84.53;96208.28;4395717;32;20106;-76
2023/12/02 08:32:51;;;;;;;9.93;3.53;;;;;;;6.60;84.76;96217.97;4395828;32;20174;-76
2023/12/02 08:35:18;;;;;;;10.25;3.87;;;;;;;6.88;83.88;96221.50;4395541;32;20116;-76
2023/12/02 08:37:45;;;;;;;14.30;3.97;;;;;;;6.72;82.06;96213.06;4395883;32;20078;-76
2023/12/02 08:40:12;;;;;;;13.05;3.87;;;;;;;7.15;81.02;96207.09;4396104;32;20086;-76
2023/12/02 08:42:39;;;;;;;9.43;3.87;;;;;;;6.61;84.58;96209.34;4395745;32;20129;-76
2023/12/02 08:45:07;;;;;;;9.05;3.28;;;;;;;6.84;83.70;96200.34;4395950;32;20114;-76
2023/12/02 08:47:34;;;;;;;8.98;3.37;;;;;;;7.11;81.55;96203.06;4395587;32;20448;-76
2023/12/02 08:50:01;;;;;;;11.70;3.90;;;;;;;6.88;81.69;96211.25;4395431;32;20090;-76
2023/12/02 08:52:28;;;;;;;10.18;3.42;;;;;;;6.38;84.49;96210.63;4395876;32;20110;-76
2023/12/02 08:54:55;;;;;;;9.90;3.55;;;;;;;6.41;82.97;96209.62;4395660;32;20135;-76
2023/12/02 08:57:22;;;;;;;10.70;3.97;;;;;;;6.29;86.77;96207.75;4395483;32;20078;-76
2023/12/02 08:59:49;;;;;;;10.15;3.58;;;;;;;4.69;95.78;96203.28;4395520;32;20170;-76
2023/12/02 09:02:16;;;;;;;10.77;4.18;;;;;;;5.93;90.64;96213.13;4396000;32;20154;-76
2023/12/02 09:04:44;;;;;;;10.57;3.92;;;;;;;5.98;89.51;96217.09;4395564;32;20140;-76
2023/12/02 09:07:11;;;;;;;10.73;4.32;;;;;;;6.33;86.77;96227.97;4395816;32;20078;-76
2023/12/02 09:09:38;;;;;;;9.85;3.55;;;;;;;7.28;82.26;96232.88;4395658;32;20106;-76
2023/12/02 09:12:05;;;;;;;10.02;3.33;;;;;;;7.34;80.07;96226.56;4395832;32;20410;-76
2023/12/02 09:14:32;;;;;;;9.15;3.50;;;;;;;5.95;84.76;96229.22;4395735;32;20090;-76
2023/12/02 09:16:59;;;;;;;10.07;3.90;;;;;;;7.00;82.93;96243.87;4395644;32;20086;-76
2023/12/02 09:19:29;;;;;;;11.12;4.37;;;;;;;7.86;77.26;96239.66;4395708;32;20098;-77
2023/12/02 09:21:56;;;;;;;10.20;4.05;;;;;;;8.30;75.41;96233.56;4395912;32;20113;-77
2023/12/02 09:24:36;;;;;;;9.73;3.62;;;;;;;7.21;78.00;96236.69;4395843;32;20117;-77
2023/12/02 09:27:05;;;;;;;10.82;3.85;;;;;;;7.81;76.45;96237.38;4395943;32;20100;-77
2023/12/02 09:29:41;;;;;;;10.15;3.85;;;;;;;8.65;72.24;96234.75;4396009;32;20102;-77
2023/12/02 09:32:17;;;;;;;8.35;3.33;;;;;;;7.91;74.92;96229.13;4395983;32;20091;-77
2023/12/02 09:34:56;;;;;;;12.07;4.25;;;;;;;7.13;78.11;96226.06;4395967;32;20078;-76
2023/12/02 09:37:48;;;;;;;10.77;4.25;;;;;;;7.31;78.71;96217.28;4394609;32;20400;-76
2023/12/02 09:40:21;;;;;;;11.43;4.28;;;;;;;7.09;79.94;96222.03;4395985;32;20108;-76
2023/12/02 09:42:55;;;;;;;11.55;4.25;;;;;;;6.50;82.00;96214.25;4396040;32;20166;-77
2023/12/02 09:45:23;;;;;;;13.02;4.75;;;;;;;7.47;79.42;96205.22;4395443;32;20094;-76
2023/12/02 09:48:26;;;;;;;13.85;4.70;;;;;;;7.07;80.23;96209.28;4394762;32;20094;-76
2023/12/02 09:51:03;;;;;;;12.13;4.57;;;;;;;7.64;78.14;96193.91;4393910;32;20157;-76
2023/12/02 09:53:45;;;;;;;;;;;;;;;7.58;77.26;96184.03;4395711;32;20161;-76
2023/12/02 09:56:19;;;;;;;14.30;5.28;;;;;;;6.80;82.18;96203.16;4395387;32;20005;-76
2023/12/02 09:58:50;;;;;;;12.80;5.25;;;;;;;7.10;81.38;96196.28;4394600;32;20110;-76
2023/12/02 10:01:26;;;;;;;13.80;5.72;;;;;;;8.09;75.64;96189.47;4381995;32;20106;-76
2023/12/02 10:04:25;;;;;;;15.43;6.05;;;;;;;7.66;76.59;96191.28;4395622;32;20062;-76
2023/12/02 10:07:02;;;;;;;16.45;6.70;;;;;;;7.75;75.65;96191.53;4382209;32;20161;-77
2023/12/02 10:09:29;;;;;;;17.87;7.47;;;;;;;7.91;75.82;96170.06;4396864;32;20083;-77
2023/12/02 10:12:09;;;;;;;20.67;9.23;;;;;;;6.92;78.19;96166.59;4396426;32;20434;-77
2023/12/02 10:14:40;;;;;;;22.15;8.80;;;;;;;6.75;80.97;96151.34;4395969;32;20146;-77
2023/12/02 10:17:11;;;;;;;19.65;8.55;;;;;;;6.67;81.35;96154.34;4395669;32;20377;-76
2023/12/02 10:19:52;;;;;;;21.27;8.90;;;;;;;6.85;78.76;96132.78;4394899;32;20121;-76
2023/12/02 10:22:23;;;;;;;20.08;8.20;;;;;;;7.03;80.45;96140.34;4394368;32;20464;-76
2023/12/02 10:24:59;;;;;;;19.20;7.25;;;;;;;6.58;80.13;96113.87;4395454;32;20106;-76
2023/12/02 10:27:30;;;;;;;18.27;8.38;;;;;;;6.20;81.85;96104.09;4394992;32;20099;-76
2023/12/02 10:30:09;;;;;;;19.10;8.50;;;;;;;5.59;85.83;96094.62;4393907;32;20156;-76
2023/12/02 10:32:50;;;;;;;21.20;8.90;;;;;;;5.38;86.74;96129.84;4395321;32;20086;-76
2023/12/02 10:35:18;;;;;;;20.83;8.38;;;;;;;6.12;86.55;96138.69;4394915;32;20094;-76
2023/12/02 10:37:53;;;;;;;19.08;7.60;;;;;;;5.72;86.29;96122.94;4395064;32;20082;-76
2023/12/02 10:40:23;;;;;;;20.62;8.50;;;;;;;5.85;85.62;96123.06;4395768;32;20055;-77
2023/12/02 10:43:10;;;;;;;20.58;9.10;;;;;;;5.96;85.16;96121.63;4381432;32;20114;-77
2023/12/02 10:45:40;;;;;;;20.02;8.63;;;;;;;6.57;82.26;96130.16;4395404;32;20097;-76
2023/12/02 10:48:11;;;;;;;20.15;8.60;;;;;;;6.99;80.07;96116.59;4393735;32;20538;-77
2023/12/02 10:50:39;;;;;;;23.35;9.52;;;;;;;7.54;76.32;96111.53;4381807;32;20153;-77
2023/12/02 10:53:06;;;;;;;22.10;9.52;;;;;;;7.49;75.04;96120.44;4395145;32;20418;-76
2023/12/02 10:55:37;;;;;;;21.08;9.50;;;;;;;6.74;78.91;96142.84;4394725;32;20094;-76
2023/12/02 10:58:05;;;;;;;20.95;9.10;;;;;;;7.06;78.34;96145.28;4394131;32;20173;-77
2023/12/02 11:00:34;;;;;;;18.65;8.48;;;;;;;7.28;76.37;96144.81;4395351;32;20075;-77
2023/12/02 11:03:25;;;;;;;25.12;9.60;;;;;;;6.78;77.57;96130.66;4395011;32;20414;-76
2023/12/02 11:06:01;;;;;;;22.33;9.02;;;;;;;6.90;79.44;96140.19;4395826;32;20165;-76
2023/12/02 11:08:48;;;;;;;23.33;9.27;;;;;;;7.40;77.69;96168.00;4395754;32;20093;-76
2023/12/02 11:11:24;;;;;;;17.95;8.45;;;;;;;7.43;77.01;96179.81;4395383;32;20087;-76
2023/12/02 11:13:53;;;;;;;21.55;8.85;;;;;;;6.36;81.67;96168.88;4395291;32;20158;-76
2023/12/02 11:16:33;;;;;;;20.12;8.98;;;;;;;7.48;75.22;96209.44;4393254;32;20124;-76
2023/12/02 11:19:18;;;;;;;16.50;7.15;;;;;;;6.64;77.53;96173.28;4381175;32;20109;-76
2023/12/02 11:22:00;;;;;;;20.42;8.32;;;;;;;5.18;87.46;96122.37;4395130;32;20100;-76
2023/12/02 11:24:45;;;;;;;20.27;8.40;;;;;;;6.86;78.06;96151.56;4394643;32;20111;-76
2023/12/02 11:27:27;;;;;;;21.27;7.85;;;;;;;6.60;77.51;96138.53;4395295;32;20242;-77
2023/12/02 11:30:22;;;;;;;20.02;7.72;;;;;;;7.22;76.45;96136.56;4393623;32;20086;-76
2023/12/02 11:32:57;;;;;;;15.52;6.47;;;;;;;6.62;78.79;96171.75;4394862;32;20156;-76
2023/12/02 11:35:58;;;;;;;15.57;6.47;;;;;;;6.16;79.12;96165.78;4394629;32;20574;-76
2023/12/02 11:38:27;;;;;;;15.88;6.28;;;;;;;5.74;80.42;96168.03;4394212;32;20082;-77
2023/12/02 11:41:19;;;;;;;18.20;6.97;;;;;;;6.10;78.48;96149.03;4394951;32;20125;-76